sensor_id;sensor_type;location;lat;lon;timestamp;pressure;altitude;pressure_sealevel;temperature;humidity
28181;BME280;15464;50.988;10.318;2023-02-28T00:00:37;100212.53;;;-0.77;84.13
28181;BME280;15464;50.988;10.318;2023-02-28T00:03:04;100217.78;;;-0.81;84.58
28181;BME280;15464;50.988;10.318;2023-02-28T00:05:31;100217.75;;;-0.79;84.07
28181;BME280;15464;50.988;10.318;2023-02-28T00:07:58;100209.97;;;-0.81;84.03
28181;BME280;15464;50.988;10.318;2023-02-28T00:10:27;100211.06;;;-0.94;84.57
28181;BME280;15464;50.988;10.318;2023-02-28T00:12:58;100207.59;;;-0.93;84.34
28181;BME280;15464;50.988;10.318;2023-02-28T00:15:26;100209.41;;;-0.98;84.12
28181;BME280;15464;50.988;10.318;2023-02-28T00:17:53;100208.69;;;-1.04;84.08
28181;BME280;15464;50.988;10.318;2023-02-28T00:20:20;100197.47;;;-1.08;83.89
28181;BME280;15464;50.988;10.318;2023-02-28T00:22:49;100198.47;;;-1.15;83.88
28181;BME280;15464;50.988;10.318;2023-02-28T00:25:18;100199.13;;;-1.05;83.82
28181;BME280;15464;50.988;10.318;2023-02-28T00:27:46;100200.06;;;-1.08;83.37
28181;BME280;15464;50.988;10.318;2023-02-28T00:30:16;100201.72;;;-1.02;83.29
28181;BME280;15464;50.988;10.318;2023-02-28T00:32:43;100200.00;;;-1.05;83.12
28181;BME280;15464;50.988;10.318;2023-02-28T00:35:11;100203.47;;;-1.04;82.99
28181;BME280;15464;50.988;10.318;2023-02-28T00:37:38;100202.59;;;-1.05;82.85
28181;BME280;15464;50.988;10.318;2023-02-28T00:40:05;100197.59;;;-1.14;82.91
28181;BME280;15464;50.988;10.318;2023-02-28T00:42:34;100203.75;;;-1.19;83.24
28181;BME280;15464;50.988;10.318;2023-02-28T00:45:01;100203.69;;;-1.16;82.96
28181;BME280;15464;50.988;10.318;2023-02-28T00:47:30;100202.03;;;-1.19;83.04
28181;BME280;15464;50.988;10.318;2023-02-28T00:49:57;100202.06;;;-1.22;82.77
28181;BME280;15464;50.988;10.318;2023-02-28T00:52:24;100199.41;;;-1.19;82.51
28181;BME280;15464;50.988;10.318;2023-02-28T00:54:51;100201.19;;;-1.21;82.58
28181;BME280;15464;50.988;10.318;2023-02-28T00:57:18;100201.19;;;-1.21;82.71
28181;BME280;15464;50.988;10.318;2023-02-28T00:59:45;100192.38;;;-1.14;82.96
28181;BME280;15464;50.988;10.318;2023-02-28T01:02:11;100198.38;;;-1.10;82.10
28181;BME280;15464;50.988;10.318;2023-02-28T01:04:38;100190.66;;;-1.15;82.54
28181;BME280;15464;50.988;10.318;2023-02-28T01:07:05;100201.06;;;-1.15;82.31
28181;BME280;15464;50.988;10.318;2023-02-28T01:09:31;100202.81;;;-1.15;82.48
28181;BME280;15464;50.988;10.318;2023-02-28T01:11:58;100201.97;;;-1.17;82.47
28181;BME280;15464;50.988;10.318;2023-02-28T01:14:25;100195.00;;;-1.15;82.23
28181;BME280;15464;50.988;10.318;2023-02-28T01:16:52;100197.59;;;-1.14;82.03
28181;BME280;15464;50.988;10.318;2023-02-28T01:19:18;100197.63;;;-1.17;82.16
28181;BME280;15464;50.988;10.318;2023-02-28T01:21:45;100197.69;;;-1.20;82.54
28181;BME280;15464;50.988;10.318;2023-02-28T01:24:13;100195.13;;;-1.23;82.63
28181;BME280;15464;50.988;10.318;2023-02-28T01:26:40;100197.69;;;-1.20;82.62
28181;BME280;15464;50.988;10.318;2023-02-28T01:29:07;100195.91;;;-1.18;82.45
28181;BME280;15464;50.988;10.318;2023-02-28T01:31:33;100203.81;;;-1.24;82.75
28181;BME280;15464;50.988;10.318;2023-02-28T01:34:00;100195.97;;;-1.21;83.12
28181;BME280;15464;50.988;10.318;2023-02-28T01:36:29;100190.69;;;-1.18;82.30
28181;BME280;15464;50.988;10.318;2023-02-28T01:38:56;100189.03;;;-1.20;82.55
28181;BME280;15464;50.988;10.318;2023-02-28T01:41:30;100189.88;;;-1.20;82.47
28181;BME280;15464;50.988;10.318;2023-02-28T01:44:02;100188.25;;;-1.26;82.42
28181;BME280;15464;50.988;10.318;2023-02-28T01:46:31;100187.31;;;-1.23;82.79
28181;BME280;15464;50.988;10.318;2023-02-28T01:54:00;100187.31;;;-1.22;82.58
28181;BME280;15464;50.988;10.318;2023-02-28T01:56:30;100176.75;;;-1.14;82.17
28181;BME280;15464;50.988;10.318;2023-02-28T01:58:59;100174.16;;;-1.14;81.71
28181;BME280;15464;50.988;10.318;2023-02-28T02:01:27;100178.47;;;-1.13;81.68
28181;BME280;15464;50.988;10.318;2023-02-28T02:03:57;100180.22;;;-1.13;81.39
28181;BME280;15464;50.988;10.318;2023-02-28T02:06:29;100172.41;;;-1.13;81.53
28181;BME280;15464;50.988;10.318;2023-02-28T02:08:56;100180.22;;;-1.13;81.64
28181;BME280;15464;50.988;10.318;2023-02-28T02:11:24;100175.03;;;-1.15;82.05
28181;BME280;15464;50.988;10.318;2023-02-28T02:14:13;100176.69;;;-1.11;82.02
28181;BME280;15464;50.988;10.318;2023-02-28T02:17:04;100168.06;;;-1.13;81.88
28181;BME280;15464;50.988;10.318;2023-02-28T02:25:13;100168.91;;;-1.12;81.76
28181;BME280;15464;50.988;10.318;2023-02-28T02:27:48;100165.41;;;-1.11;81.85
28181;BME280;15464;50.988;10.318;2023-02-28T02:30:40;100162.97;;;-1.19;82.11
28181;BME280;15464;50.988;10.318;2023-02-28T02:39:00;100164.75;;;-1.21;82.53
28181;BME280;15464;50.988;10.318;2023-02-28T02:41:46;100159.63;;;-1.26;82.42
28181;BME280;15464;50.988;10.318;2023-02-28T02:44:22;100164.75;;;-1.21;82.32
28181;BME280;15464;50.988;10.318;2023-02-28T02:46:55;100158.69;;;-1.23;82.15
28181;BME280;15464;50.988;10.318;2023-02-28T02:49:29;100162.13;;;-1.19;82.11
28181;BME280;15464;50.988;10.318;2023-02-28T02:52:02;100150.84;;;-1.20;82.01
28181;BME280;15464;50.988;10.318;2023-02-28T02:54:36;100154.31;;;-1.21;81.64
28181;BME280;15464;50.988;10.318;2023-02-28T02:57:07;100158.88;;;-1.32;81.53
28181;BME280;15464;50.988;10.318;2023-02-28T02:59:38;100160.63;;;-1.34;82.22
28181;BME280;15464;50.988;10.318;2023-02-28T03:02:09;100156.16;;;-1.26;82.42
28181;BME280;15464;50.988;10.318;2023-02-28T03:04:48;100172.53;;;-1.19;82.16
28181;BME280;15464;50.988;10.318;2023-02-28T03:07:17;100159.41;;;-1.15;82.28
28181;BME280;15464;50.988;10.318;2023-02-28T03:09:55;100164.56;;;-1.12;81.80
28181;BME280;15464;50.988;10.318;2023-02-28T03:12:28;100160.25;;;-1.13;81.77
28181;BME280;15464;50.988;10.318;2023-02-28T03:20:38;100165.59;;;-1.19;82.08
28181;BME280;15464;50.988;10.318;2023-02-28T03:26:06;100156.91;;;-1.19;81.91
28181;BME280;15464;50.988;10.318;2023-02-28T03:28:46;100156.97;;;-1.24;81.74
28181;BME280;15464;50.988;10.318;2023-02-28T03:31:44;100156.16;;;-1.26;81.71
28181;BME280;15464;50.988;10.318;2023-02-28T03:34:35;100156.16;;;-1.26;81.82
28181;BME280;15464;50.988;10.318;2023-02-28T03:37:15;100157.94;;;-1.28;81.78
28181;BME280;15464;50.988;10.318;2023-02-28T03:39:56;100156.09;;;-1.23;82.08
28181;BME280;15464;50.988;10.318;2023-02-28T03:42:27;100146.50;;;-1.19;82.10
28181;BME280;15464;50.988;10.318;2023-02-28T03:44:59;100162.97;;;-1.19;81.92
28181;BME280;15464;50.988;10.318;2023-02-28T03:47:40;100155.28;;;-1.25;82.54
28181;BME280;15464;50.988;10.318;2023-02-28T03:50:14;100156.09;;;-1.23;82.44
28181;BME280;15464;50.988;10.318;2023-02-28T03:52:49;100158.59;;;-1.18;82.57
28181;BME280;15464;50.988;10.318;2023-02-28T03:55:18;100155.13;;;-1.17;82.39
28181;BME280;15464;50.988;10.318;2023-02-28T03:58:05;100154.22;;;-1.15;82.36
28181;BME280;15464;50.988;10.318;2023-02-28T04:01:03;100156.78;;;-1.13;82.24
28181;BME280;15464;50.988;10.318;2023-02-28T04:03:38;100155.13;;;-1.17;82.47
28181;BME280;15464;50.988;10.318;2023-02-28T04:06:07;100158.66;;;-1.22;81.39
28181;BME280;15464;50.988;10.318;2023-02-28T04:08:39;100162.16;;;-1.23;80.23
28181;BME280;15464;50.988;10.318;2023-02-28T04:11:36;100166.28;;;-1.11;77.68
28181;BME280;15464;50.988;10.318;2023-02-28T04:14:04;100169.66;;;-1.06;77.05
28181;BME280;15464;50.988;10.318;2023-02-28T04:16:32;100161.06;;;-1.11;74.97
28181;BME280;15464;50.988;10.318;2023-02-28T04:19:05;100162.88;;;-1.13;73.66
28181;BME280;15464;50.988;10.318;2023-02-28T04:21:37;100159.31;;;-1.09;72.11
28181;BME280;15464;50.988;10.318;2023-02-28T04:24:06;100160.16;;;-1.07;71.45
28181;BME280;15464;50.988;10.318;2023-02-28T04:26:35;100165.47;;;-1.13;72.49
28181;BME280;15464;50.988;10.318;2023-02-28T04:29:04;100163.66;;;-1.11;70.41
28181;BME280;15464;50.988;10.318;2023-02-28T04:31:31;100171.56;;;-1.14;70.25
28181;BME280;15464;50.988;10.318;2023-02-28T04:33:59;100163.69;;;-1.12;70.66
28181;BME280;15464;50.988;10.318;2023-02-28T04:36:26;100169.66;;;-1.06;70.01
28181;BME280;15464;50.988;10.318;2023-02-28T04:38:54;100170.47;;;-1.04;68.88
28181;BME280;15464;50.988;10.318;2023-02-28T04:41:21;100175.03;;;-1.15;70.51
28181;BME280;15464;50.988;10.318;2023-02-28T04:43:51;100173.22;;;-1.11;68.54
28181;BME280;15464;50.988;10.318;2023-02-28T04:46:18;100173.94;;;-1.03;67.72
28181;BME280;15464;50.988;10.318;2023-02-28T04:48:45;100172.13;;;-1.00;67.94
28181;BME280;15464;50.988;10.318;2023-02-28T04:51:14;100166.16;;;-1.05;67.85
28181;BME280;15464;50.988;10.318;2023-02-28T04:53:41;100169.88;;;-1.18;69.21
28181;BME280;15464;50.988;10.318;2023-02-28T04:56:12;100173.50;;;-1.25;68.60
28181;BME280;15464;50.988;10.318;2023-02-28T04:58:39;100170.84;;;-1.24;69.35
28181;BME280;15464;50.988;10.318;2023-02-28T05:01:16;100166.47;;;-1.20;69.14
28181;BME280;15464;50.988;10.318;2023-02-28T05:03:43;100169.94;;;-1.21;66.70
28181;BME280;15464;50.988;10.318;2023-02-28T05:06:11;100168.28;;;-1.25;67.77
28181;BME280;15464;50.988;10.318;2023-02-28T05:08:38;100175.31;;;-1.30;68.33
28181;BME280;15464;50.988;10.318;2023-02-28T05:11:08;100176.22;;;-1.33;69.22
28181;BME280;15464;50.988;10.318;2023-02-28T05:13:38;100187.44;;;-1.29;68.64
28181;BME280;15464;50.988;10.318;2023-02-28T05:16:05;100178.75;;;-1.28;69.81
28181;BME280;15464;50.988;10.318;2023-02-28T05:18:32;100191.75;;;-1.27;68.77
28181;BME280;15464;50.988;10.318;2023-02-28T05:20:59;100193.41;;;-1.24;68.60
28181;BME280;15464;50.988;10.318;2023-02-28T05:23:29;100191.72;;;-1.25;69.31
28181;BME280;15464;50.988;10.318;2023-02-28T05:25:56;100189.19;;;-1.31;70.04
28181;BME280;15464;50.988;10.318;2023-02-28T05:28:23;100192.53;;;-1.23;67.61
28181;BME280;15464;50.988;10.318;2023-02-28T05:30:50;100189.13;;;-1.25;66.54
28181;BME280;15464;50.988;10.318;2023-02-28T05:33:16;100194.41;;;-1.31;67.46
28181;BME280;15464;50.988;10.318;2023-02-28T05:35:43;100198.81;;;-1.36;68.08
28181;BME280;15464;50.988;10.318;2023-02-28T05:38:10;100198.94;;;-1.42;68.79
28181;BME280;15464;50.988;10.318;2023-02-28T05:40:38;100201.50;;;-1.39;68.32
28181;BME280;15464;50.988;10.318;2023-02-28T05:43:07;100203.22;;;-1.38;68.22
28181;BME280;15464;50.988;10.318;2023-02-28T05:45:35;100198.00;;;-1.38;68.03
28181;BME280;15464;50.988;10.318;2023-02-28T05:48:02;100207.50;;;-1.36;68.93
28181;BME280;15464;50.988;10.318;2023-02-28T05:50:28;100207.59;;;-1.40;70.05
28181;BME280;15464;50.988;10.318;2023-02-28T05:52:55;100205.00;;;-1.43;70.47
28181;BME280;15464;50.988;10.318;2023-02-28T05:55:22;100205.97;;;-1.47;71.28
28181;BME280;15464;50.988;10.318;2023-02-28T05:57:48;100209.41;;;-1.45;71.08
28181;BME280;15464;50.988;10.318;2023-02-28T06:00:15;100204.19;;;-1.44;71.49
28181;BME280;15464;50.988;10.318;2023-02-28T06:02:44;100206.69;;;-1.39;71.85
28181;BME280;15464;50.988;10.318;2023-02-28T06:05:16;100204.09;;;-1.38;72.05
28181;BME280;15464;50.988;10.318;2023-02-28T06:07:43;100208.34;;;-1.35;71.94
28181;BME280;15464;50.988;10.318;2023-02-28T06:10:11;100204.75;;;-1.27;71.22
28181;BME280;15464;50.988;10.318;2023-02-28T06:12:38;100214.19;;;-1.19;70.87
28181;BME280;15464;50.988;10.318;2023-02-28T06:15:05;100212.38;;;-1.17;71.01
28181;BME280;15464;50.988;10.318;2023-02-28T06:17:32;100213.34;;;-1.22;70.55
28181;BME280;15464;50.988;10.318;2023-02-28T06:19:58;100218.72;;;-1.32;71.35
28181;BME280;15464;50.988;10.318;2023-02-28T06:22:25;100214.22;;;-1.24;70.99
28181;BME280;15464;50.988;10.318;2023-02-28T06:24:52;100216.78;;;-1.21;71.36
28181;BME280;15464;50.988;10.318;2023-02-28T06:27:19;100219.50;;;-1.27;71.65
28181;BME280;15464;50.988;10.318;2023-02-28T06:29:46;100217.91;;;-1.36;72.06
28181;BME280;15464;50.988;10.318;2023-02-28T06:32:13;100216.94;;;-1.30;71.86
28181;BME280;15464;50.988;10.318;2023-02-28T06:34:40;100216.94;;;-1.30;72.75
28181;BME280;15464;50.988;10.318;2023-02-28T06:37:06;100222.09;;;-1.27;72.32
28181;BME280;15464;50.988;10.318;2023-02-28T06:39:33;100226.38;;;-1.23;72.22
28181;BME280;15464;50.988;10.318;2023-02-28T06:42:00;100228.06;;;-1.19;72.48
28181;BME280;15464;50.988;10.318;2023-02-28T06:44:27;100237.34;;;-1.06;70.67
28181;BME280;15464;50.988;10.318;2023-02-28T06:47:03;100237.19;;;-0.98;70.23
28181;BME280;15464;50.988;10.318;2023-02-28T06:49:32;100242.50;;;-1.03;70.91
28181;BME280;15464;50.988;10.318;2023-02-28T06:51:58;100240.75;;;-1.02;70.74
28181;BME280;15464;50.988;10.318;2023-02-28T06:54:25;100247.72;;;-1.03;69.76
28181;BME280;15464;50.988;10.318;2023-02-28T06:56:52;100245.91;;;-0.99;69.04
28181;BME280;15464;50.988;10.318;2023-02-28T06:59:20;100253.56;;;-0.90;68.30
28181;BME280;15464;50.988;10.318;2023-02-28T07:01:47;100245.78;;;-0.93;67.62
28181;BME280;15464;50.988;10.318;2023-02-28T07:04:14;100247.69;;;-1.01;68.50
28181;BME280;15464;50.988;10.318;2023-02-28T07:06:41;100252.03;;;-1.00;67.88
28181;BME280;15464;50.988;10.318;2023-02-28T07:09:07;100245.94;;;-1.01;67.23
28181;BME280;15464;50.988;10.318;2023-02-28T07:11:34;100246.81;;;-1.00;67.27
28181;BME280;15464;50.988;10.318;2023-02-28T07:14:01;100254.53;;;-0.96;68.29
28181;BME280;15464;50.988;10.318;2023-02-28T07:16:28;100257.75;;;-0.82;67.77
28181;BME280;15464;50.988;10.318;2023-02-28T07:18:55;100253.19;;;-0.70;66.79
28181;BME280;15464;50.988;10.318;2023-02-28T07:21:22;100256.53;;;-0.64;64.93
28181;BME280;15464;50.988;10.318;2023-02-28T07:23:49;100252.13;;;-0.60;64.85
28181;BME280;15464;50.988;10.318;2023-02-28T07:26:17;100253.72;;;-0.53;64.65
28181;BME280;15464;50.988;10.318;2023-02-28T07:28:46;100251.06;;;-0.50;65.28
28181;BME280;15464;50.988;10.318;2023-02-28T07:31:15;100255.31;;;-0.46;64.84
28181;BME280;15464;50.988;10.318;2023-02-28T07:33:42;100256.13;;;-0.43;65.37
28181;BME280;15464;50.988;10.318;2023-02-28T07:36:12;100254.38;;;-0.42;66.11
28181;BME280;15464;50.988;10.318;2023-02-28T07:38:45;100254.19;;;-0.33;65.74
28181;BME280;15464;50.988;10.318;2023-02-28T07:41:16;100252.31;;;-0.26;65.99
28181;BME280;15464;50.988;10.318;2023-02-28T07:43:43;100254.94;;;-0.28;66.54
28181;BME280;15464;50.988;10.318;2023-02-28T07:46:12;100259.31;;;-0.30;66.20
28181;BME280;15464;50.988;10.318;2023-02-28T07:48:42;100260.94;;;-0.23;66.41
28181;BME280;15464;50.988;10.318;2023-02-28T07:51:08;100252.22;;;-0.22;66.71
28181;BME280;15464;50.988;10.318;2023-02-28T07:53:35;100257.28;;;-0.14;65.77
28181;BME280;15464;50.988;10.318;2023-02-28T07:56:02;100263.34;;;-0.14;64.94
28181;BME280;15464;50.988;10.318;2023-02-28T07:58:30;100255.47;;;-0.12;65.60
28181;BME280;15464;50.988;10.318;2023-02-28T08:00:57;100258.03;;;-0.09;65.61
28181;BME280;15464;50.988;10.318;2023-02-28T08:03:24;100257.00;;;-0.01;65.05
28181;BME280;15464;50.988;10.318;2023-02-28T08:05:51;100252.84;;;-0.11;65.32
28181;BME280;15464;50.988;10.318;2023-02-28T08:08:19;100256.28;;;-0.09;65.57
28181;BME280;15464;50.988;10.318;2023-02-28T08:10:46;100248.34;;;-0.04;65.70
28181;BME280;15464;50.988;10.318;2023-02-28T08:13:12;100251.00;;;-0.06;65.23
28181;BME280;15464;50.988;10.318;2023-02-28T08:15:41;100244.09;;;-0.07;65.62
28181;BME280;15464;50.988;10.318;2023-02-28T08:18:09;100243.16;;;-0.06;65.03
28181;BME280;15464;50.988;10.318;2023-02-28T08:20:36;100248.50;;;-0.10;65.35
28181;BME280;15464;50.988;10.318;2023-02-28T08:23:03;100242.50;;;-0.14;65.72
28181;BME280;15464;50.988;10.318;2023-02-28T08:25:29;100238.88;;;-0.07;63.61
28181;BME280;15464;50.988;10.318;2023-02-28T08:27:56;100245.88;;;-0.10;63.79
28181;BME280;15464;50.988;10.318;2023-02-28T08:30:23;100242.28;;;-0.05;62.74
28181;BME280;15464;50.988;10.318;2023-02-28T08:32:49;100252.66;;;-0.02;61.79
28181;BME280;15464;50.988;10.318;2023-02-28T08:35:16;100252.88;;;-0.12;63.19
28181;BME280;15464;50.988;10.318;2023-02-28T08:37:42;100254.53;;;-0.07;63.29
28181;BME280;15464;50.988;10.318;2023-02-28T08:40:10;100249.09;;;0.03;62.48
28181;BME280;15464;50.988;10.318;2023-02-28T08:42:37;100253.41;;;0.05;61.07
28181;BME280;15464;50.988;10.318;2023-02-28T08:45:04;100258.41;;;0.13;61.30
28181;BME280;15464;50.988;10.318;2023-02-28T08:47:31;100246.19;;;0.16;60.22
28181;BME280;15464;50.988;10.318;2023-02-28T08:49:57;100257.41;;;0.20;60.45
28181;BME280;15464;50.988;10.318;2023-02-28T08:52:24;100265.91;;;0.28;60.06
28181;BME280;15464;50.988;10.318;2023-02-28T08:54:51;100268.56;;;0.26;60.61
28181;BME280;15464;50.988;10.318;2023-02-28T08:57:17;100265.91;;;0.28;59.63
28181;BME280;15464;50.988;10.318;2023-02-28T08:59:44;100260.50;;;0.37;60.06
28181;BME280;15464;50.988;10.318;2023-02-28T09:02:13;100269.06;;;0.42;58.93
28181;BME280;15464;50.988;10.318;2023-02-28T09:04:40;100264.06;;;0.33;58.54
28181;BME280;15464;50.988;10.318;2023-02-28T09:07:07;100266.50;;;0.40;58.71
28181;BME280;15464;50.988;10.318;2023-02-28T09:09:34;100268.97;;;0.47;59.69
28181;BME280;15464;50.988;10.318;2023-02-28T09:12:01;100265.50;;;0.46;57.87
28181;BME280;15464;50.988;10.318;2023-02-28T09:14:28;100258.56;;;0.45;57.94
28181;BME280;15464;50.988;10.318;2023-02-28T09:16:55;100260.22;;;0.49;56.68
28181;BME280;15464;50.988;10.318;2023-02-28T09:19:21;100260.97;;;0.54;53.51
28181;BME280;15464;50.988;10.318;2023-02-28T09:21:48;100251.47;;;0.50;53.36
28181;BME280;15464;50.988;10.318;2023-02-28T09:24:15;100254.03;;;0.52;52.86
28181;BME280;15464;50.988;10.318;2023-02-28T09:26:42;100247.91;;;0.54;52.54
28181;BME280;15464;50.988;10.318;2023-02-28T09:29:29;100259.97;;;0.58;53.38
28181;BME280;15464;50.988;10.318;2023-02-28T09:31:55;100252.81;;;0.68;53.37
28181;BME280;15464;50.988;10.318;2023-02-28T09:34:26;100244.16;;;0.64;53.92
28181;BME280;15464;50.988;10.318;2023-02-28T09:36:53;100251.47;;;0.87;54.73
28181;BME280;15464;50.988;10.318;2023-02-28T09:39:22;100256.16;;;1.07;52.89
28181;BME280;15464;50.988;10.318;2023-02-28T09:41:51;100256.91;;;1.12;52.04
28181;BME280;15464;50.988;10.318;2023-02-28T09:47:19;100270.75;;;1.15;52.14
28181;BME280;15464;50.988;10.318;2023-02-28T09:49:51;100259.53;;;1.12;51.52
28181;BME280;15464;50.988;10.318;2023-02-28T09:52:21;100258.75;;;1.07;50.54
28181;BME280;15464;50.988;10.318;2023-02-28T09:54:51;100250.81;;;1.11;51.94
28181;BME280;15464;50.988;10.318;2023-02-28T10:05:31;100267.13;;;0.87;52.41
28181;BME280;15464;50.988;10.318;2023-02-28T10:08:08;100266.34;;;0.82;51.06
28181;BME280;15464;50.988;10.318;2023-02-28T10:10:42;100266.56;;;0.74;51.75
28181;BME280;15464;50.988;10.318;2023-02-28T10:13:14;100276.16;;;0.74;52.85
28181;BME280;15464;50.988;10.318;2023-02-28T10:15:45;100273.47;;;0.75;52.59
28181;BME280;15464;50.988;10.318;2023-02-28T10:18:16;100278.13;;;0.63;52.85
28181;BME280;15464;50.988;10.318;2023-02-28T10:20:47;100272.22;;;0.56;53.06
28181;BME280;15464;50.988;10.318;2023-02-28T10:23:41;100273.16;;;0.54;53.21
28181;BME280;15464;50.988;10.318;2023-02-28T10:26:12;100268.41;;;0.69;53.27
28181;BME280;15464;50.988;10.318;2023-02-28T10:28:42;100261.84;;;0.89;52.29
28181;BME280;15464;50.988;10.318;2023-02-28T10:31:17;100272.91;;;1.00;52.15
28181;BME280;15464;50.988;10.318;2023-02-28T10:33:45;100272.50;;;1.15;52.57
28181;BME280;15464;50.988;10.318;2023-02-28T10:36:18;100266.13;;;1.25;52.78
28181;BME280;15464;50.988;10.318;2023-02-28T10:38:46;100265.31;;;1.23;50.33
28181;BME280;15464;50.988;10.318;2023-02-28T10:41:26;100263.13;;;1.39;49.45
28181;BME280;15464;50.988;10.318;2023-02-28T10:44:13;100270.13;;;1.38;49.23
28181;BME280;15464;50.988;10.318;2023-02-28T10:46:41;100263.03;;;1.43;48.79
28181;BME280;15464;50.988;10.318;2023-02-28T10:49:24;100260.31;;;1.46;49.92
28181;BME280;15464;50.988;10.318;2023-02-28T10:51:54;100267.94;;;1.55;49.31
28181;BME280;15464;50.988;10.318;2023-02-28T10:54:28;100265.41;;;1.51;49.06
28181;BME280;15464;50.988;10.318;2023-02-28T10:57:28;100256.44;;;1.61;49.01
28181;BME280;15464;50.988;10.318;2023-02-28T11:00:14;100250.34;;;1.60;49.87
28181;BME280;15464;50.988;10.318;2023-02-28T11:02:41;100261.56;;;1.64;48.75
28181;BME280;15464;50.988;10.318;2023-02-28T11:05:29;100257.34;;;1.60;49.47
28181;BME280;15464;50.988;10.318;2023-02-28T11:08:06;100247.78;;;1.59;49.28
28181;BME280;15464;50.988;10.318;2023-02-28T11:10:38;100247.38;;;1.73;49.37
28181;BME280;15464;50.988;10.318;2023-02-28T11:13:05;100246.84;;;1.61;48.91
28181;BME280;15464;50.988;10.318;2023-02-28T11:15:34;100248.25;;;1.73;49.04
28181;BME280;15464;50.988;10.318;2023-02-28T11:20:51;100244.22;;;1.91;49.66
28181;BME280;15464;50.988;10.318;2023-02-28T11:23:18;100236.72;;;2.08;52.32
28181;BME280;15464;50.988;10.318;2023-02-28T11:25:50;100229.69;;;2.10;49.42
28181;BME280;15464;50.988;10.318;2023-02-28T11:28:35;100231.78;;;2.27;50.51
28181;BME280;15464;50.988;10.318;2023-02-28T11:31:17;100227.53;;;2.24;49.66
28181;BME280;15464;50.988;10.318;2023-02-28T11:33:53;100222.66;;;2.40;49.58
28181;BME280;15464;50.988;10.318;2023-02-28T11:36:29;100225.19;;;2.43;48.97
28181;BME280;15464;50.988;10.318;2023-02-28T11:39:04;100228.41;;;2.51;49.63
28181;BME280;15464;50.988;10.318;2023-02-28T11:45:18;100222.00;;;2.33;49.37
28181;BME280;15464;50.988;10.318;2023-02-28T11:48:07;100229.31;;;2.22;49.71
28181;BME280;15464;50.988;10.318;2023-02-28T12:01:18;100217.25;;;2.18;50.94
28181;BME280;15464;50.988;10.318;2023-02-28T12:06:40;100210.41;;;2.13;50.09
28181;BME280;15464;50.988;10.318;2023-02-28T12:09:39;100205.56;;;2.28;51.14
28181;BME280;15464;50.988;10.318;2023-02-28T12:26:27;100200.63;;;2.73;49.70
28181;BME280;15464;50.988;10.318;2023-02-28T12:29:09;100206.81;;;2.71;49.57
28181;BME280;15464;50.988;10.318;2023-02-28T12:31:41;100199.97;;;2.67;49.42
28181;BME280;15464;50.988;10.318;2023-02-28T12:34:19;100195.84;;;2.60;48.76
28181;BME280;15464;50.988;10.318;2023-02-28T12:36:48;100196.03;;;2.80;49.08
28181;BME280;15464;50.988;10.318;2023-02-28T12:39:35;100190.72;;;3.06;49.74
28181;BME280;15464;50.988;10.318;2023-02-28T12:47:24;100183.72;;;2.82;48.82
28181;BME280;15464;50.988;10.318;2023-02-28T12:50:06;100169.25;;;2.97;49.12
28181;BME280;15464;50.988;10.318;2023-02-28T12:52:49;100174.75;;;3.14;49.08
28181;BME280;15464;50.988;10.318;2023-02-28T13:09:27;100173.06;;;3.59;46.96
28181;BME280;15464;50.988;10.318;2023-02-28T13:11:56;100171.34;;;3.82;47.38
28181;BME280;15464;50.988;10.318;2023-02-28T13:14:36;100170.66;;;3.77;47.47
28181;BME280;15464;50.988;10.318;2023-02-28T13:17:11;100169.22;;;3.91;46.94
28181;BME280;15464;50.988;10.318;2023-02-28T13:19:56;100160.81;;;4.05;47.17
28181;BME280;15464;50.988;10.318;2023-02-28T13:22:48;100166.56;;;4.15;46.96
28181;BME280;15464;50.988;10.318;2023-02-28T13:27:57;100161.16;;;3.96;48.53
28181;BME280;15464;50.988;10.318;2023-02-28T13:33:33;100158.91;;;4.52;47.17
28181;BME280;15464;50.988;10.318;2023-02-28T13:38:52;100162.09;;;4.80;46.57
28181;BME280;15464;50.988;10.318;2023-02-28T13:44:29;100161.16;;;4.61;47.81
28181;BME280;15464;50.988;10.318;2023-02-28T14:05:25;100148.44;;;3.63;48.97
28181;BME280;15464;50.988;10.318;2023-02-28T14:07:56;100145.09;;;3.82;48.75
28181;BME280;15464;50.988;10.318;2023-02-28T14:10:29;100142.16;;;3.68;48.56
28181;BME280;15464;50.988;10.318;2023-02-28T14:13:00;100144.25;;;3.81;48.91
28181;BME280;15464;50.988;10.318;2023-02-28T14:15:46;100139.63;;;3.43;48.79
28181;BME280;15464;50.988;10.318;2023-02-28T14:20:45;100134.69;;;3.34;48.81
28181;BME280;15464;50.988;10.318;2023-02-28T14:31:34;100128.72;;;3.98;48.57
28181;BME280;15464;50.988;10.318;2023-02-28T14:36:35;100135.41;;;3.84;48.67
28181;BME280;15464;50.988;10.318;2023-02-28T14:39:14;100129.69;;;3.96;49.02
28181;BME280;15464;50.988;10.318;2023-02-28T14:41:43;100127.16;;;3.71;47.50
28181;BME280;15464;50.988;10.318;2023-02-28T14:46:44;100127.50;;;3.39;49.25
28181;BME280;15464;50.988;10.318;2023-02-28T14:49:23;100117.56;;;3.70;49.59
28181;BME280;15464;50.988;10.318;2023-02-28T14:52:07;100131.00;;;3.84;48.99
28181;BME280;15464;50.988;10.318;2023-02-28T14:54:39;100133.81;;;4.01;48.99
28181;BME280;15464;50.988;10.318;2023-02-28T14:57:23;100126.19;;;3.50;49.04
28181;BME280;15464;50.988;10.318;2023-02-28T15:00:09;100126.16;;;3.29;49.94
28181;BME280;15464;50.988;10.318;2023-02-28T15:02:39;100128.88;;;3.25;50.48
28181;BME280;15464;50.988;10.318;2023-02-28T15:07:38;100125.66;;;3.42;50.41
28181;BME280;15464;50.988;10.318;2023-02-28T15:12:51;100112.56;;;3.64;50.62
28181;BME280;15464;50.988;10.318;2023-02-28T15:15:20;100122.28;;;3.62;50.50
28181;BME280;15464;50.988;10.318;2023-02-28T15:18:03;100126.59;;;3.40;50.44
28181;BME280;15464;50.988;10.318;2023-02-28T15:20:32;100125.13;;;3.33;50.83
28181;BME280;15464;50.988;10.318;2023-02-28T15:23:00;100127.50;;;3.39;50.71